Heat Index [SAI AWOS/ASOS Display]_________FAA Disclaimer: "Not for use in aviation at this time______________" Untitled Document
Columbia County Airport
000
07:27
17/04/29
00
N/A
N/A
30.01
N/A
196
61(F), 16(C)
56(F), 13(C)
61 F
82%
OVC100
10
N/A
N/A
N/A
07:27 zulu Wind Calm, Altimeter 30.01
METAR K1B1 290727Z AUTO 00000KT 10SM OVC100 16/13 A3002 A02
METAR:
FAA Disclaimer--Advisory Use ONLY, not for flight info-- 4/24/2017: Test.... New UNICOM frequency change to 123.050 mhz .... new URL for cellphones , smartphones ... http://www.saiawos2.com/1B1 --- AWOS frequency 133.525 MHz , dial in 518-828-2577, -------, NEW AWOS installed 03/03/2010 ---- ,
INFO:
Wind Direction:
Wind Speed:
Wind Gust:
Wind Variable:
Altimeter:
Dens Alt:
Elev:
Temp:
Dwpt:
Wind Chill
Rel Humidity:
Ceiling:
Visibility:
Prsnt Wea:
PCPN:
Remarks:
How to read the WebPage